Time;durP1;ratioP1;P1;durP2;ratioP2;P2;SDS_P1;SDS_P2;PMS_P1;PMS_P2;Temp;Humidity;BMP_temperature;BMP_pressure;BME280_temperature;BME280_humidity;BME280_pressure;Samples;Min_cycle;Max_cycle;Signal;HPM_P1;HPM_P2
2024/04/19 00:00:18;;;;;;;;;6.00;6.00;;;;;;;;5501472;25;43857;-49
2024/04/19 00:02:44;;;;;;;;;8.00;7.00;;;;;;;;5501355;25;44024;-49
2024/04/19 00:05:10;;;;;;;;;7.00;6.00;;;;;;;;5501534;25;44096;-50
2024/04/19 00:07:35;;;;;;;;;6.00;6.00;;;;;;;;5500369;25;44221;-49
2024/04/19 00:10:00;;;;;;;;;7.00;5.33;;;;;;;;5476698;25;43965;-50
2024/04/19 00:12:26;;;;;;;;;5.00;5.00;;;;;;;;5500860;25;43946;-49
2024/04/19 00:14:51;;;;;;;;;7.00;5.33;;;;;;;;5501628;25;43821;-52
2024/04/19 00:17:16;;;;;;;;;6.00;6.00;;;;;;;;5500876;25;43874;-48
2024/04/19 00:19:41;;;;;;;;;8.67;6.00;;;;;;;;5484633;25;43701;-52
2024/04/19 00:22:06;;;;;;;;;6.00;6.00;;;;;;;;5501586;25;43885;-50
2024/04/19 00:24:32;;;;;;;;;6.00;6.00;;;;;;;;5464268;25;43851;-52
2024/04/19 00:26:57;;;;;;;;;6.00;6.00;;;;;;;;5501427;25;46092;-49
2024/04/19 00:29:22;;;;;;;;;8.67;6.00;;;;;;;;5494982;25;44249;-56
2024/04/19 00:31:47;;;;;;;;;7.00;5.67;;;;;;;;5500920;25;43991;-50
2024/04/19 00:34:12;;;;;;;;;6.00;6.00;;;;;;;;5486138;25;44123;-52
2024/04/19 00:36:37;;;;;;;;;5.00;5.00;;;;;;;;5499788;25;43949;-51
2024/04/19 00:39:03;;;;;;;;;6.33;5.00;;;;;;;;5496501;25;43693;-49
2024/04/19 00:41:28;;;;;;;;;7.67;6.00;;;;;;;;5486468;25;43893;-53
2024/04/19 00:43:53;;;;;;;;;6.67;5.33;;;;;;;;5469344;25;44171;-51
2024/04/19 00:46:18;;;;;;;;;7.67;7.00;;;;;;;;5501381;25;43856;-52
2024/04/19 00:48:44;;;;;;;;;6.00;6.00;;;;;;;;5499990;25;43913;-52
2024/04/19 00:51:09;;;;;;;;;7.33;5.67;;;;;;;;5493530;25;43988;-49
2024/04/19 00:53:34;;;;;;;;;7.00;5.00;;;;;;;;5465302;25;43847;-50
2024/04/19 00:56:00;;;;;;;;;8.00;7.00;;;;;;;;5468577;25;44603;-51
2024/04/19 00:58:26;;;;;;;;;7.00;5.67;;;;;;;;5492748;25;43787;-51
2024/04/19 01:00:52;;;;;;;;;4.00;4.00;;;;;;;;5486726;25;43978;-52
2024/04/19 01:03:17;;;;;;;;;7.00;6.33;;;;;;;;5486661;25;43955;-50
2024/04/19 01:05:42;;;;;;;;;5.00;5.00;;;;;;;;5485927;25;45801;-49
2024/04/19 01:08:07;;;;;;;;;5.00;5.00;;;;;;;;5491319;25;44331;-51
2024/04/19 01:10:33;;;;;;;;;7.33;5.33;;;;;;;;5492769;25;44249;-50
2024/04/19 01:12:58;;;;;;;;;10.33;8.00;;;;;;;;5486993;25;44238;-51
2024/04/19 01:15:24;;;;;;;;;6.33;5.00;;;;;;;;5491370;25;44070;-49
2024/04/19 01:17:49;;;;;;;;;6.33;5.67;;;;;;;;5484355;25;44216;-49
2024/04/19 01:20:15;;;;;;;;;6.00;5.00;;;;;;;;5486263;25;45086;-51
2024/04/19 01:22:41;;;;;;;;;6.33;4.67;;;;;;;;5485542;25;43932;-51
2024/04/19 01:25:09;;;;;;;;;4.33;4.00;;;;;;;;5499014;25;45722;-48
2024/04/19 01:27:34;;;;;;;;;3.33;3.33;;;;;;;;5498413;25;43848;-49
2024/04/19 01:29:59;;;;;;;;;4.33;4.33;;;;;;;;5498833;25;44084;-51
2024/04/19 01:32:24;;;;;;;;;4.33;4.33;;;;;;;;5496910;25;44142;-49
2024/04/19 01:34:50;;;;;;;;;5.67;5.33;;;;;;;;5493559;25;44767;-51
2024/04/19 01:37:15;;;;;;;;;6.00;4.00;;;;;;;;5498224;25;44084;-51
2024/04/19 01:39:41;;;;;;;;;6.67;5.67;;;;;;;;5451667;25;43969;-50
2024/04/19 01:42:06;;;;;;;;;7.00;5.00;;;;;;;;5497956;25;43764;-49
2024/04/19 01:44:31;;;;;;;;;8.67;6.00;;;;;;;;5497787;25;44696;-50
2024/04/19 01:46:57;;;;;;;;;5.00;4.00;;;;;;;;5498240;25;43930;-52
2024/04/19 01:49:22;;;;;;;;;4.00;4.00;;;;;;;;5496890;25;44160;-52
2024/04/19 01:51:47;;;;;;;;;6.67;4.67;;;;;;;;5496990;25;44434;-49
2024/04/19 01:54:15;;;;;;;;;9.33;6.00;;;;;;;;5495392;25;44933;-49
2024/04/19 01:56:40;;;;;;;;;4.00;4.00;;;;;;;;5494544;25;44019;-49
2024/04/19 01:59:05;;;;;;;;;2.33;2.33;;;;;;;;5483035;25;43975;-51
2024/04/19 02:01:31;;;;;;;;;6.67;6.00;;;;;;;;5496439;25;43846;-49
2024/04/19 02:03:56;;;;;;;;;6.00;5.00;;;;;;;;5498274;25;43972;-50
2024/04/19 02:06:21;;;;;;;;;7.33;5.33;;;;;;;;5496991;25;43868;-50
2024/04/19 02:08:46;;;;;;;;;5.00;4.00;;;;;;;;5496438;25;43893;-50
2024/04/19 02:11:11;;;;;;;;;5.00;4.33;;;;;;;;5482316;25;43707;-49
2024/04/19 02:13:37;;;;;;;;;4.00;4.00;;;;;;;;5457836;25;44091;-49
2024/04/19 02:16:02;;;;;;;;;4.00;4.00;;;;;;;;5498213;25;43665;-50
2024/04/19 02:18:27;;;;;;;;;5.67;4.67;;;;;;;;5496190;25;43853;-50
2024/04/19 02:20:52;;;;;;;;;5.67;5.67;;;;;;;;5495976;25;44145;-51
2024/04/19 02:23:44;;;;;;;;;7.00;6.33;;;;;;;;5496679;25;45043;-50
2024/04/19 02:26:09;;;;;;;;;6.67;5.00;;;;;;;;5452569;25;43914;-53
2024/04/19 02:31:19;;;;;;;;;5.00;5.00;;;;;;;;5493464;25;43945;-48
2024/04/19 02:33:45;;;;;;;;;4.00;4.00;;;;;;;;5496839;25;45244;-49
2024/04/19 02:36:10;;;;;;;;;4.33;4.33;;;;;;;;5486830;25;44183;-52
2024/04/19 02:38:36;;;;;;;;;5.00;5.00;;;;;;;;5482830;25;43959;-48
2024/04/19 02:41:01;;;;;;;;;4.00;4.00;;;;;;;;5497000;25;45418;-50
2024/04/19 02:43:26;;;;;;;;;5.33;5.00;;;;;;;;5490313;25;44716;-49
2024/04/19 02:45:52;;;;;;;;;5.00;4.33;;;;;;;;5494678;25;43824;-49
2024/04/19 02:48:17;;;;;;;;;5.00;4.00;;;;;;;;5497645;25;43691;-49
2024/04/19 02:50:42;;;;;;;;;6.67;6.67;;;;;;;;5492209;25;44116;-52
2024/04/19 02:53:07;;;;;;;;;7.00;6.00;;;;;;;;5497840;25;44019;-52
2024/04/19 02:55:33;;;;;;;;;6.00;4.00;;;;;;;;5459693;25;43988;-52
2024/04/19 02:57:58;;;;;;;;;4.00;4.00;;;;;;;;5494014;25;43913;-48
2024/04/19 03:00:23;;;;;;;;;7.00;5.33;;;;;;;;5486547;25;43852;-50
2024/04/19 03:02:48;;;;;;;;;4.67;4.00;;;;;;;;5495240;25;44018;-48
2024/04/19 03:05:14;;;;;;;;;4.33;4.33;;;;;;;;5493694;25;44307;-49
2024/04/19 03:07:39;;;;;;;;;5.00;5.00;;;;;;;;5489703;25;44001;-51
2024/04/19 03:10:05;;;;;;;;;7.67;5.00;;;;;;;;5496417;25;46982;-48
2024/04/19 03:12:30;;;;;;;;;7.00;7.00;;;;;;;;5482541;25;46677;-49
2024/04/19 03:14:55;;;;;;;;;7.67;6.33;;;;;;;;5493872;25;43939;-51
2024/04/19 03:17:20;;;;;;;;;4.67;4.67;;;;;;;;5487083;25;44010;-51
2024/04/19 03:19:46;;;;;;;;;4.67;4.67;;;;;;;;5483024;25;44151;-52
2024/04/19 03:22:11;;;;;;;;;9.00;6.00;;;;;;;;5486250;25;43938;-51
2024/04/19 03:24:36;;;;;;;;;7.00;5.00;;;;;;;;5478306;25;44006;-51
2024/04/19 03:27:02;;;;;;;;;5.00;5.00;;;;;;;;5492234;25;44051;-52
2024/04/19 03:29:27;;;;;;;;;5.00;5.00;;;;;;;;5499520;25;43857;-49
2024/04/19 03:31:52;;;;;;;;;4.67;4.67;;;;;;;;5489051;25;44642;-49
2024/04/19 03:34:19;;;;;;;;;5.00;5.00;;;;;;;;5487079;25;43909;-51
2024/04/19 03:36:44;;;;;;;;;5.00;5.00;;;;;;;;5484875;25;44364;-52
2024/04/19 03:39:09;;;;;;;;;8.00;5.00;;;;;;;;5468282;25;43882;-49
2024/04/19 03:41:37;;;;;;;;;5.00;5.00;;;;;;;;5500614;25;44934;-53
2024/04/19 03:46:47;;;;;;;;;5.00;5.00;;;;;;;;5490150;25;43757;-52
2024/04/19 03:49:12;;;;;;;;;4.33;4.33;;;;;;;;5495352;25;44677;-52
2024/04/19 03:51:37;;;;;;;;;5.00;5.00;;;;;;;;5489531;25;44695;-51
2024/04/19 03:54:02;;;;;;;;;6.67;5.33;;;;;;;;5484366;25;43840;-51
2024/04/19 03:56:28;;;;;;;;;7.33;6.67;;;;;;;;5482646;25;44057;-50
2024/04/19 03:58:53;;;;;;;;;5.00;5.00;;;;;;;;5496276;25;44009;-51
2024/04/19 04:01:18;;;;;;;;;7.33;6.33;;;;;;;;5490978;25;45088;-50
2024/04/19 04:03:43;;;;;;;;;4.33;3.00;;;;;;;;5485417;25;43956;-50
2024/04/19 04:06:08;;;;;;;;;5.00;4.00;;;;;;;;5485746;25;43920;-50
2024/04/19 04:08:34;;;;;;;;;5.67;5.67;;;;;;;;5487342;25;43800;-53
2024/04/19 04:11:00;;;;;;;;;5.67;5.67;;;;;;;;5488125;25;45865;-52
2024/04/19 04:13:25;;;;;;;;;6.00;5.00;;;;;;;;5479354;25;44059;-52
2024/04/19 04:15:51;;;;;;;;;4.00;4.00;;;;;;;;5500094;25;44015;-51
2024/04/19 04:18:17;;;;;;;;;7.00;4.33;;;;;;;;5483532;25;44306;-52
2024/04/19 04:20:42;;;;;;;;;5.33;5.33;;;;;;;;5487401;25;43981;-52
2024/04/19 04:23:08;;;;;;;;;6.33;6.00;;;;;;;;5492776;25;43837;-50
2024/04/19 04:25:34;;;;;;;;;3.67;3.67;;;;;;;;5494270;25;43807;-50
2024/04/19 04:28:00;;;;;;;;;6.00;6.00;;;;;;;;5495982;25;43690;-51
2024/04/19 04:30:25;;;;;;;;;5.00;5.00;;;;;;;;5469838;25;44724;-52
2024/04/19 04:32:50;;;;;;;;;4.00;4.00;;;;;;;;5475796;25;43955;-51
2024/04/19 04:35:15;;;;;;;;;2.67;2.67;;;;;;;;5470156;25;43956;-50
2024/04/19 04:37:40;;;;;;;;;8.00;5.33;;;;;;;;5495055;25;43938;-50
2024/04/19 04:40:06;;;;;;;;;9.67;7.33;;;;;;;;5471097;25;45286;-52
2024/04/19 04:42:31;;;;;;;;;7.00;6.00;;;;;;;;5482317;25;43708;-52
2024/04/19 04:44:56;;;;;;;;;7.00;5.67;;;;;;;;5504157;25;43851;-52
2024/04/19 04:47:21;;;;;;;;;7.67;5.00;;;;;;;;5497651;25;44177;-52
2024/04/19 04:49:46;;;;;;;;;6.00;4.33;;;;;;;;5501911;25;44950;-51
2024/04/19 04:52:12;;;;;;;;;6.00;3.67;;;;;;;;5482734;25;44107;-52
2024/04/19 04:54:37;;;;;;;;;5.00;3.00;;;;;;;;5473278;25;44175;-48
2024/04/19 04:57:07;;;;;;;;;5.00;4.33;;;;;;;;5497417;25;45381;-48
2024/04/19 04:59:32;;;;;;;;;8.00;6.00;;;;;;;;5473629;25;44991;-52
2024/04/19 05:01:57;;;;;;;;;6.00;4.00;;;;;;;;5448899;25;44186;-50
2024/04/19 05:04:22;;;;;;;;;8.00;6.00;;;;;;;;5442400;26;44399;-52
2024/04/19 05:06:48;;;;;;;;;5.00;4.67;;;;;;;;5491929;25;43866;-52
2024/04/19 05:09:13;;;;;;;;;2.00;2.00;;;;;;;;5486401;25;46035;-51
2024/04/19 05:11:38;;;;;;;;;5.00;4.33;;;;;;;;5501880;25;44099;-49
2024/04/19 05:14:03;;;;;;;;;9.00;5.00;;;;;;;;5500168;25;44465;-49
2024/04/19 05:16:28;;;;;;;;;4.00;4.00;;;;;;;;5502123;25;43968;-49
2024/04/19 05:18:55;;;;;;;;;5.00;5.00;;;;;;;;5455306;25;45658;-52
2024/04/19 05:21:20;;;;;;;;;5.00;4.00;;;;;;;;5486588;25;43749;-51
2024/04/19 05:23:47;;;;;;;;;4.33;4.33;;;;;;;;5488642;25;44079;-50
2024/04/19 05:26:12;;;;;;;;;4.00;4.00;;;;;;;;5486578;25;44287;-49
2024/04/19 05:28:38;;;;;;;;;4.33;4.00;;;;;;;;5502803;25;44037;-52
2024/04/19 05:31:03;;;;;;;;;6.67;5.00;;;;;;;;5480045;25;43873;-52
2024/04/19 05:33:28;;;;;;;;;3.00;1.33;;;;;;;;5472231;25;44066;-51
2024/04/19 05:35:54;;;;;;;;;6.00;5.00;;;;;;;;5496296;25;43724;-52
2024/04/19 05:38:19;;;;;;;;;4.67;4.67;;;;;;;;5486574;25;45011;-52
2024/04/19 05:40:44;;;;;;;;;6.00;5.00;;;;;;;;5484392;25;43946;-49
2024/04/19 05:43:09;;;;;;;;;3.33;3.33;;;;;;;;5503599;25;43894;-49
2024/04/19 05:45:35;;;;;;;;;3.00;3.00;;;;;;;;5498732;25;43869;-50
2024/04/19 05:48:00;;;;;;;;;3.33;3.33;;;;;;;;5499217;25;44939;-51
2024/04/19 05:50:25;;;;;;;;;2.67;2.67;;;;;;;;5483825;25;43973;-52
2024/04/19 05:52:51;;;;;;;;;3.00;3.00;;;;;;;;5485745;25;43884;-52
2024/04/19 05:55:20;;;;;;;;;3.67;3.67;;;;;;;;5484305;25;43991;-50
2024/04/19 05:57:45;;;;;;;;;6.00;3.33;;;;;;;;5445762;25;46258;-53
2024/04/19 06:00:11;;;;;;;;;4.67;3.00;;;;;;;;5478305;25;43776;-53
2024/04/19 06:02:36;;;;;;;;;2.33;2.33;;;;;;;;5440902;25;43876;-51
2024/04/19 06:05:01;;;;;;;;;2.67;2.67;;;;;;;;5497953;25;43949;-52
2024/04/19 06:07:26;;;;;;;;;4.00;4.00;;;;;;;;5416991;25;45789;-49
2024/04/19 06:09:51;;;;;;;;;6.67;2.00;;;;;;;;5463254;25;43760;-53
2024/04/19 06:12:16;;;;;;;;;0.00;0.00;;;;;;;;5485739;25;43864;-53
2024/04/19 06:14:42;;;;;;;;;6.00;4.00;;;;;;;;5491450;25;43887;-50
2024/04/19 06:17:07;;;;;;;;;3.33;3.33;;;;;;;;5480617;25;44736;-52
2024/04/19 06:19:32;;;;;;;;;5.00;3.67;;;;;;;;5502160;25;44103;-48
2024/04/19 06:21:57;;;;;;;;;7.33;4.67;;;;;;;;5467540;25;43851;-49
2024/04/19 06:24:23;;;;;;;;;7.67;4.67;;;;;;;;5497656;25;44007;-50
2024/04/19 06:26:49;;;;;;;;;3.00;3.00;;;;;;;;5486618;25;44283;-50
2024/04/19 06:29:14;;;;;;;;;3.00;3.00;;;;;;;;5475081;25;44284;-49
2024/04/19 06:31:39;;;;;;;;;3.00;3.00;;;;;;;;5502669;25;44085;-53
2024/04/19 06:34:04;;;;;;;;;4.00;4.00;;;;;;;;5501626;25;44269;-52
2024/04/19 06:36:29;;;;;;;;;3.00;2.33;;;;;;;;5502333;25;45055;-52
2024/04/19 06:38:56;;;;;;;;;4.33;4.33;;;;;;;;5470306;25;44530;-52
2024/04/19 06:41:21;;;;;;;;;3.00;3.00;;;;;;;;5502763;25;43919;-52
2024/04/19 06:43:47;;;;;;;;;5.00;4.00;;;;;;;;5501320;25;43892;-52
2024/04/19 06:46:12;;;;;;;;;5.00;4.00;;;;;;;;5502239;25;45662;-52
2024/04/19 06:48:37;;;;;;;;;3.00;3.00;;;;;;;;5469526;25;44669;-52
2024/04/19 06:51:02;;;;;;;;;3.67;3.67;;;;;;;;5502629;25;43850;-51
2024/04/19 06:53:28;;;;;;;;;2.00;2.00;;;;;;;;5484834;25;44056;-52
2024/04/19 06:55:54;;;;;;;;;4.00;4.00;;;;;;;;5488855;25;44037;-52
2024/04/19 06:58:19;;;;;;;;;7.67;4.67;;;;;;;;5500568;25;43961;-52
2024/04/19 07:00:44;;;;;;;;;1.00;1.00;;;;;;;;5501725;25;43887;-53
2024/04/19 07:03:09;;;;;;;;;4.33;3.00;;;;;;;;5494525;25;44035;-48
2024/04/19 07:05:35;;;;;;;;;7.00;3.00;;;;;;;;5468146;25;43758;-48
2024/04/19 07:08:00;;;;;;;;;5.33;4.00;;;;;;;;5469642;25;44021;-48
2024/04/19 07:10:25;;;;;;;;;4.00;4.00;;;;;;;;5495372;25;43803;-49
2024/04/19 07:12:50;;;;;;;;;4.00;4.00;;;;;;;;5500568;25;43893;-52
2024/04/19 07:15:15;;;;;;;;;4.33;4.00;;;;;;;;5500943;25;45390;-51
2024/04/19 07:17:41;;;;;;;;;6.00;3.33;;;;;;;;5499922;25;43876;-53
2024/04/19 07:20:06;;;;;;;;;4.67;4.67;;;;;;;;5499217;25;43888;-55
2024/04/19 07:22:31;;;;;;;;;6.67;3.67;;;;;;;;5491013;25;44007;-49
2024/04/19 07:24:56;;;;;;;;;4.00;2.00;;;;;;;;5490476;25;44144;-52
2024/04/19 07:27:22;;;;;;;;;5.33;3.00;;;;;;;;5499971;25;43999;-49
2024/04/19 07:29:47;;;;;;;;;3.00;3.00;;;;;;;;5495260;25;44291;-49
2024/04/19 07:32:12;;;;;;;;;3.00;3.00;;;;;;;;5493932;25;44219;-50
2024/04/19 07:34:37;;;;;;;;;3.00;3.00;;;;;;;;5491510;25;44990;-50
2024/04/19 07:37:02;;;;;;;;;10.00;3.67;;;;;;;;5488850;25;44034;-49
2024/04/19 07:39:28;;;;;;;;;4.67;4.00;;;;;;;;5497361;25;43984;-49
2024/04/19 07:41:55;;;;;;;;;5.67;5.67;;;;;;;;5500309;25;43983;-52
2024/04/19 07:44:20;;;;;;;;;3.33;3.00;;;;;;;;5499276;25;44927;-51
2024/04/19 07:46:46;;;;;;;;;3.67;3.67;;;;;;;;5492046;25;43996;-49
2024/04/19 07:49:11;;;;;;;;;3.00;3.00;;;;;;;;5500174;25;43964;-50
2024/04/19 07:51:36;;;;;;;;;6.33;4.00;;;;;;;;5496876;25;44205;-53
2024/04/19 07:54:02;;;;;;;;;4.33;3.00;;;;;;;;5493461;25;43875;-50
2024/04/19 07:56:31;;;;;;;;;4.33;3.00;;;;;;;;5493533;25;43844;-53
2024/04/19 07:58:56;;;;;;;;;3.00;3.00;;;;;;;;5432696;25;43934;-50
2024/04/19 08:01:21;;;;;;;;;6.33;2.33;;;;;;;;5465690;25;43947;-52
2024/04/19 08:03:48;;;;;;;;;4.33;3.33;;;;;;;;5490327;25;45588;-49
2024/04/19 08:06:13;;;;;;;;;5.33;3.00;;;;;;;;5498840;25;43929;-49
2024/04/19 08:08:38;;;;;;;;;4.00;3.33;;;;;;;;5497974;25;44019;-52
2024/04/19 08:11:03;;;;;;;;;3.67;3.00;;;;;;;;5464328;25;43937;-50
2024/04/19 08:13:28;;;;;;;;;5.00;3.00;;;;;;;;5482648;25;45208;-52
2024/04/19 08:15:54;;;;;;;;;3.67;3.67;;;;;;;;5496141;25;43797;-50
2024/04/19 08:18:19;;;;;;;;;4.67;4.00;;;;;;;;5498852;25;44014;-51
2024/04/19 08:20:44;;;;;;;;;8.33;3.00;;;;;;;;5457253;25;44342;-53
2024/04/19 08:23:09;;;;;;;;;5.00;4.67;;;;;;;;5499778;25;43996;-50
2024/04/19 08:25:34;;;;;;;;;7.00;5.00;;;;;;;;5499379;25;44430;-52
2024/04/19 08:27:59;;;;;;;;;6.00;4.67;;;;;;;;5489338;25;43957;-54
2024/04/19 08:30:25;;;;;;;;;5.33;4.33;;;;;;;;5491176;25;43912;-53
2024/04/19 08:32:50;;;;;;;;;9.00;4.00;;;;;;;;5486023;25;44813;-51
2024/04/19 08:35:15;;;;;;;;;5.67;4.00;;;;;;;;5463697;25;43885;-52
2024/04/19 08:37:40;;;;;;;;;4.00;4.00;;;;;;;;5498581;25;44087;-51
2024/04/19 08:40:08;;;;;;;;;3.00;3.00;;;;;;;;5491265;25;44095;-49
2024/04/19 08:42:33;;;;;;;;;4.33;3.00;;;;;;;;5498653;25;43987;-52
2024/04/19 08:45:01;;;;;;;;;5.33;3.67;;;;;;;;5498317;25;44055;-50
2024/04/19 08:47:30;;;;;;;;;5.33;3.00;;;;;;;;5500108;25;43902;-50
2024/04/19 08:49:56;;;;;;;;;5.33;2.67;;;;;;;;5496545;25;44035;-50
2024/04/19 08:52:21;;;;;;;;;3.67;3.33;;;;;;;;5493179;25;44861;-54
2024/04/19 08:54:47;;;;;;;;;4.33;3.00;;;;;;;;5488328;25;44058;-52
2024/04/19 08:57:13;;;;;;;;;5.00;4.00;;;;;;;;5492153;25;44075;-51
2024/04/19 08:59:39;;;;;;;;;6.33;5.00;;;;;;;;5491670;25;45273;-49
2024/04/19 09:02:04;;;;;;;;;3.00;3.00;;;;;;;;5496608;25;44321;-50
2024/04/19 09:04:29;;;;;;;;;4.33;4.33;;;;;;;;5490411;25;44014;-51
2024/04/19 09:06:54;;;;;;;;;5.00;3.67;;;;;;;;5492932;25;43870;-51
2024/04/19 09:09:20;;;;;;;;;6.00;4.00;;;;;;;;5488440;25;43934;-50
2024/04/19 09:11:45;;;;;;;;;3.00;3.00;;;;;;;;5493331;25;46228;-50
2024/04/19 09:14:10;;;;;;;;;4.00;4.00;;;;;;;;5498316;25;43968;-51
2024/04/19 09:16:35;;;;;;;;;5.67;4.67;;;;;;;;5495907;25;44396;-53
2024/04/19 09:19:01;;;;;;;;;4.67;3.00;;;;;;;;5492558;25;44084;-51
2024/04/19 09:21:27;;;;;;;;;4.67;3.00;;;;;;;;5467339;25;45310;-54
2024/04/19 09:23:52;;;;;;;;;5.33;4.00;;;;;;;;5489914;25;43944;-52
2024/04/19 09:26:19;;;;;;;;;4.00;2.67;;;;;;;;5500930;25;43915;-51
2024/04/19 09:28:44;;;;;;;;;4.67;3.00;;;;;;;;5501406;25;44269;-51
2024/04/19 09:31:09;;;;;;;;;4.67;3.33;;;;;;;;5470281;25;45734;-50
2024/04/19 09:33:35;;;;;;;;;3.67;3.00;;;;;;;;5483560;25;43957;-52
2024/04/19 09:36:00;;;;;;;;;4.00;2.67;;;;;;;;5502957;25;43995;-53
2024/04/19 09:38:26;;;;;;;;;3.33;3.33;;;;;;;;5502216;25;44196;-52
2024/04/19 09:40:51;;;;;;;;;3.00;3.00;;;;;;;;5502572;25;44851;-58
2024/04/19 09:43:20;;;;;;;;;6.67;5.00;;;;;;;;5502800;25;43940;-54
2024/04/19 09:45:48;;;;;;;;;7.00;5.67;;;;;;;;5502572;25;43957;-53
2024/04/19 09:48:17;;;;;;;;;5.00;5.00;;;;;;;;5502763;25;43997;-48
2024/04/19 09:50:51;;;;;;;;;3.67;3.00;;;;;;;;5500239;25;45170;-51
2024/04/19 09:53:19;;;;;;;;;9.00;5.67;;;;;;;;5500654;25;43905;-50
2024/04/19 09:56:05;;;;;;;;;4.67;4.67;;;;;;;;5490191;25;43981;-49
2024/04/19 09:58:31;;;;;;;;;4.00;4.00;;;;;;;;5498664;25;44298;-51
2024/04/19 10:00:56;;;;;;;;;7.00;3.00;;;;;;;;5498898;25;43818;-52
2024/04/19 10:03:22;;;;;;;;;9.67;5.67;;;;;;;;5499853;25;43827;-51
2024/04/19 10:05:48;;;;;;;;;3.67;3.33;;;;;;;;5501357;25;43901;-50
2024/04/19 10:08:13;;;;;;;;;4.67;3.00;;;;;;;;5494145;25;43969;-50
2024/04/19 10:10:39;;;;;;;;;4.00;4.00;;;;;;;;5496972;25;44714;-49
2024/04/19 10:13:04;;;;;;;;;5.67;5.67;;;;;;;;5477930;25;44041;-48
2024/04/19 10:15:29;;;;;;;;;5.00;3.33;;;;;;;;5501982;25;43783;-49
2024/04/19 10:17:54;;;;;;;;;3.00;3.00;;;;;;;;5501814;25;44012;-51
2024/04/19 10:20:23;;;;;;;;;6.00;5.00;;;;;;;;5502032;25;44102;-50
2024/04/19 10:22:49;;;;;;;;;5.67;5.67;;;;;;;;5500866;25;43857;-53
2024/04/19 10:25:20;;;;;;;;;7.00;6.00;;;;;;;;5453940;25;43781;-53
2024/04/19 10:27:46;;;;;;;;;4.33;2.67;;;;;;;;5500411;25;44155;-51
2024/04/19 10:30:13;;;;;;;;;4.00;4.00;;;;;;;;5499474;25;44610;-51
2024/04/19 10:32:38;;;;;;;;;3.33;3.33;;;;;;;;5500976;25;45416;-50
2024/04/19 10:35:04;;;;;;;;;3.00;3.00;;;;;;;;5495725;25;44296;-46
2024/04/19 10:37:29;;;;;;;;;3.67;2.67;;;;;;;;5500312;25;44346;-47
2024/04/19 10:39:54;;;;;;;;;3.00;3.00;;;;;;;;5500135;25;44784;-47
2024/04/19 10:42:20;;;;;;;;;9.67;6.00;;;;;;;;5494911;25;44106;-51
2024/04/19 10:44:48;;;;;;;;;5.33;5.33;;;;;;;;5485814;25;44420;-49
2024/04/19 10:47:13;;;;;;;;;5.33;3.33;;;;;;;;5489057;25;43681;-50
2024/04/19 10:49:38;;;;;;;;;5.00;3.33;;;;;;;;5485764;25;46005;-49
2024/04/19 10:52:04;;;;;;;;;4.67;4.67;;;;;;;;5480172;25;43937;-50
2024/04/19 10:54:30;;;;;;;;;4.00;4.00;;;;;;;;5491601;25;43979;-47
2024/04/19 10:56:55;;;;;;;;;4.33;3.00;;;;;;;;5501034;25;44002;-50
2024/04/19 10:59:20;;;;;;;;;6.33;5.00;;;;;;;;5501565;25;45730;-46
2024/04/19 11:01:46;;;;;;;;;5.67;3.33;;;;;;;;5501415;25;43914;-46
2024/04/19 11:04:11;;;;;;;;;8.33;7.00;;;;;;;;5501694;25;43936;-48
2024/04/19 11:06:37;;;;;;;;;7.33;4.00;;;;;;;;5500591;25;44425;-49
2024/04/19 11:09:03;;;;;;;;;7.33;5.00;;;;;;;;5501152;25;43871;-53
2024/04/19 11:11:36;;;;;;;;;6.67;5.00;;;;;;;;5501430;25;44079;-48
2024/04/19 11:14:01;;;;;;;;;5.67;4.33;;;;;;;;5492863;25;45276;-47
2024/04/19 11:16:27;;;;;;;;;4.33;4.33;;;;;;;;5497620;25;44238;-45
2024/04/19 11:18:52;;;;;;;;;6.00;4.00;;;;;;;;5488994;25;45278;-58
2024/04/19 11:21:17;;;;;;;;;3.00;3.00;;;;;;;;5502368;25;44086;-57
2024/04/19 11:23:42;;;;;;;;;6.00;5.00;;;;;;;;5492641;25;44007;-52
2024/04/19 11:26:08;;;;;;;;;4.33;4.33;;;;;;;;5488740;25;44087;-54
2024/04/19 11:28:33;;;;;;;;;4.67;4.67;;;;;;;;5448830;25;45291;-55
2024/04/19 11:31:07;;;;;;;;;2.00;2.00;;;;;;;;5489809;25;43918;-45
2024/04/19 11:33:32;;;;;;;;;5.33;3.33;;;;;;;;5494601;25;45374;-46
2024/04/19 11:35:57;;;;;;;;;5.33;3.33;;;;;;;;5492303;25;44035;-45
2024/04/19 11:38:23;;;;;;;;;4.33;4.33;;;;;;;;5504282;25;45295;-46
2024/04/19 11:40:50;;;;;;;;;4.33;2.67;;;;;;;;5476177;25;44029;-45
2024/04/19 11:43:16;;;;;;;;;4.00;4.00;;;;;;;;5500759;25;43991;-45
2024/04/19 11:45:43;;;;;;;;;4.00;4.00;;;;;;;;5458363;25;43739;-47
2024/04/19 11:48:08;;;;;;;;;5.00;5.00;;;;;;;;5498357;25;45131;-47
2024/04/19 11:50:33;;;;;;;;;5.67;5.00;;;;;;;;5514350;25;43994;-46
2024/04/19 11:52:59;;;;;;;;;6.67;4.33;;;;;;;;5486955;25;43861;-48
2024/04/19 11:55:24;;;;;;;;;5.00;3.67;;;;;;;;5494946;25;43746;-45
2024/04/19 11:57:49;;;;;;;;;6.00;4.00;;;;;;;;5486118;25;44767;-48
2024/04/19 12:00:14;;;;;;;;;6.00;4.00;;;;;;;;5482446;25;44152;-49
2024/04/19 12:02:39;;;;;;;;;5.00;3.00;;;;;;;;5487534;25;43849;-50
2024/04/19 12:05:05;;;;;;;;;5.00;3.67;;;;;;;;5470557;25;44044;-47
2024/04/19 12:07:30;;;;;;;;;8.33;4.33;;;;;;;;5496424;25;44893;-47
2024/04/19 12:09:55;;;;;;;;;5.00;5.00;;;;;;;;5459019;25;44029;-47
2024/04/19 12:12:21;;;;;;;;;3.67;3.67;;;;;;;;5492363;25;44085;-46
2024/04/19 12:14:48;;;;;;;;;4.33;3.33;;;;;;;;5455847;25;43923;-46
2024/04/19 12:17:13;;;;;;;;;6.00;4.00;;;;;;;;5486559;25;45914;-47
2024/04/19 12:19:39;;;;;;;;;3.00;3.00;;;;;;;;5495983;25;43888;-46
2024/04/19 12:22:05;;;;;;;;;6.00;3.00;;;;;;;;5494235;25;44074;-46
2024/04/19 12:24:34;;;;;;;;;4.33;3.00;;;;;;;;5494322;25;43951;-46
2024/04/19 12:27:00;;;;;;;;;2.00;2.00;;;;;;;;5517129;25;45432;-46
2024/04/19 12:29:25;;;;;;;;;4.67;3.00;;;;;;;;5492101;25;44156;-47
2024/04/19 12:31:50;;;;;;;;;3.00;3.00;;;;;;;;5484386;25;44082;-45
2024/04/19 12:34:17;;;;;;;;;1.00;1.00;;;;;;;;5498170;25;43957;-45
2024/04/19 12:36:42;;;;;;;;;7.00;2.00;;;;;;;;5467738;25;46592;-45
2024/04/19 12:39:08;;;;;;;;;2.33;2.00;;;;;;;;5496992;25;43999;-46
2024/04/19 12:41:33;;;;;;;;;6.00;3.00;;;;;;;;5498217;25;43900;-49
2024/04/19 12:43:58;;;;;;;;;4.00;3.33;;;;;;;;5500450;25;44059;-47
2024/04/19 12:46:24;;;;;;;;;4.00;3.67;;;;;;;;5490034;25;44966;-46
2024/04/19 12:49:01;;;;;;;;;3.00;3.00;;;;;;;;5489668;25;43970;-46
2024/04/19 12:51:26;;;;;;;;;4.33;4.00;;;;;;;;5497156;25;45543;-45
2024/04/19 12:53:51;;;;;;;;;3.00;3.00;;;;;;;;5493820;25;43888;-46
2024/04/19 12:56:17;;;;;;;;;4.00;4.00;;;;;;;;5499870;25;45864;-45
2024/04/19 12:58:42;;;;;;;;;4.00;3.00;;;;;;;;5488280;25;43702;-46
2024/04/19 13:01:07;;;;;;;;;4.00;2.67;;;;;;;;5464507;25;43917;-45
2024/04/19 13:03:32;;;;;;;;;4.00;4.00;;;;;;;;5502219;25;43830;-45
2024/04/19 13:05:58;;;;;;;;;3.33;3.00;;;;;;;;5503461;25;44094;-45
2024/04/19 13:08:23;;;;;;;;;3.00;3.00;;;;;;;;5499256;25;44024;-47
2024/04/19 13:10:48;;;;;;;;;2.33;2.33;;;;;;;;5491029;25;44124;-48
2024/04/19 13:13:14;;;;;;;;;3.33;3.00;;;;;;;;5482614;25;44138;-45
2024/04/19 13:15:40;;;;;;;;;3.00;3.00;;;;;;;;5493850;25;45797;-45
2024/04/19 13:18:05;;;;;;;;;2.67;2.67;;;;;;;;5502568;25;44236;-45
2024/04/19 13:20:30;;;;;;;;;3.67;3.00;;;;;;;;5495098;25;44251;-45
2024/04/19 13:22:56;;;;;;;;;4.33;4.33;;;;;;;;5490524;25;45508;-47
2024/04/19 13:25:21;;;;;;;;;2.00;2.00;;;;;;;;5486417;25;44080;-45
2024/04/19 13:27:46;;;;;;;;;5.00;3.33;;;;;;;;5494534;25;43934;-47
2024/04/19 13:30:11;;;;;;;;;5.00;4.33;;;;;;;;5490614;25;43780;-45
2024/04/19 13:32:36;;;;;;;;;3.33;3.00;;;;;;;;5492629;25;43839;-45
2024/04/19 13:35:01;;;;;;;;;2.67;2.00;;;;;;;;5502978;25;44987;-46
2024/04/19 13:37:27;;;;;;;;;3.00;2.67;;;;;;;;5496861;25;43959;-46
2024/04/19 13:39:52;;;;;;;;;2.67;2.67;;;;;;;;5490596;25;43983;-45
2024/04/19 13:42:17;;;;;;;;;3.00;3.00;;;;;;;;5498451;25;44117;-45
2024/04/19 13:44:42;;;;;;;;;4.33;2.33;;;;;;;;5486832;25;44193;-44
2024/04/19 13:47:11;;;;;;;;;2.00;2.00;;;;;;;;5499939;25;43837;-44
2024/04/19 13:49:37;;;;;;;;;5.00;2.00;;;;;;;;5492096;25;44054;-44
2024/04/19 13:52:02;;;;;;;;;4.33;3.00;;;;;;;;5498272;25;43660;-45
2024/04/19 13:54:27;;;;;;;;;2.33;2.33;;;;;;;;5491883;25;43801;-45
2024/04/19 13:56:53;;;;;;;;;3.33;3.33;;;;;;;;5491504;25;44075;-44
2024/04/19 13:59:20;;;;;;;;;3.00;3.00;;;;;;;;5493652;25;43885;-45
2024/04/19 14:01:46;;;;;;;;;5.67;4.00;;;;;;;;5492450;25;43893;-45
2024/04/19 14:04:11;;;;;;;;;3.33;1.67;;;;;;;;5482241;25;43987;-44
2024/04/19 14:06:36;;;;;;;;;3.00;3.00;;;;;;;;5439128;25;44106;-44
2024/04/19 14:09:05;;;;;;;;;4.67;4.67;;;;;;;;5474365;25;44061;-44
2024/04/19 14:11:31;;;;;;;;;2.33;2.00;;;;;;;;5496217;25;43842;-45
2024/04/19 14:13:56;;;;;;;;;3.00;3.00;;;;;;;;5498416;25;44717;-46
2024/04/19 14:16:23;;;;;;;;;5.00;2.00;;;;;;;;5477799;25;44028;-45
2024/04/19 14:18:48;;;;;;;;;3.00;3.00;;;;;;;;5500975;25;44259;-45
2024/04/19 14:21:13;;;;;;;;;3.00;2.00;;;;;;;;5478422;25;43941;-45
2024/04/19 14:23:40;;;;;;;;;2.00;2.00;;;;;;;;5499924;25;43946;-46
2024/04/19 14:26:06;;;;;;;;;4.00;3.00;;;;;;;;5496799;25;43913;-45
2024/04/19 14:28:32;;;;;;;;;4.00;4.00;;;;;;;;5500628;25;43867;-45
2024/04/19 14:30:58;;;;;;;;;7.00;3.00;;;;;;;;5481267;25;44132;-46
2024/04/19 14:33:23;;;;;;;;;8.00;7.00;;;;;;;;5499099;25;43834;-46
2024/04/19 14:35:48;;;;;;;;;6.67;6.00;;;;;;;;5484402;25;43808;-48
2024/04/19 14:38:13;;;;;;;;;3.00;3.00;;;;;;;;5495782;25;43865;-45